createdAt,value
2018-07-22T00:01:50.667Z,20.47
2018-07-22T00:04:19.399Z,20.47
2018-07-22T00:06:48.046Z,20.42
2018-07-22T00:09:16.842Z,20.38
2018-07-22T00:11:45.546Z,20.34
2018-07-22T00:14:14.520Z,20.36
2018-07-22T00:16:43.408Z,20.33
2018-07-22T00:19:12.263Z,20.27
2018-07-22T00:21:40.931Z,20.28
2018-07-22T00:24:09.657Z,20.21
2018-07-22T00:26:38.309Z,20.22
2018-07-22T00:29:06.998Z,20.11
2018-07-22T00:31:35.759Z,20.13
2018-07-22T00:34:04.491Z,20.07
2018-07-22T00:36:33.183Z,19.97
2018-07-22T00:39:01.879Z,19.83
2018-07-22T00:41:30.984Z,19.80
2018-07-22T00:43:59.673Z,19.70
2018-07-22T00:46:28.343Z,19.69
2018-07-22T00:48:57.071Z,19.69
2018-07-22T00:51:25.720Z,19.62
2018-07-22T00:53:54.398Z,19.57
2018-07-22T00:56:23.076Z,19.62
2018-07-22T00:58:51.728Z,19.62
2018-07-22T01:01:20.683Z,19.63
2018-07-22T01:03:49.755Z,19.51
2018-07-22T01:06:18.425Z,19.57
2018-07-22T01:08:47.076Z,19.45
2018-07-22T01:11:15.771Z,19.42
2018-07-22T01:13:44.546Z,19.36
2018-07-22T01:16:13.327Z,19.35
2018-07-22T01:18:41.982Z,19.35
2018-07-22T01:21:10.706Z,19.22
2018-07-22T01:23:39.417Z,19.22
2018-07-22T01:26:08.162Z,19.23
2018-07-22T01:28:36.820Z,19.22
2018-07-22T01:31:05.474Z,19.18
2018-07-22T01:33:34.172Z,19.22
2018-07-22T01:36:02.827Z,19.14
2018-07-22T01:38:31.489Z,19.07
2018-07-22T01:41:00.187Z,19.04
2018-07-22T01:43:28.912Z,18.98
2018-07-22T01:45:57.622Z,19.01
2018-07-22T01:48:26.265Z,19.02
2018-07-22T01:50:54.936Z,18.99
2018-07-22T01:53:23.660Z,18.99
2018-07-22T01:55:52.321Z,18.94
2018-07-22T01:58:20.960Z,18.85
2018-07-22T02:00:49.689Z,18.76
2018-07-22T02:03:18.346Z,18.73
2018-07-22T02:05:47.041Z,18.81
2018-07-22T02:08:15.755Z,18.70
2018-07-22T02:10:44.406Z,18.69
2018-07-22T02:13:13.134Z,18.66
2018-07-22T02:15:41.829Z,18.61
2018-07-22T02:18:10.494Z,18.60
2018-07-22T02:20:39.155Z,18.66
2018-07-22T02:23:07.892Z,18.69
2018-07-22T02:25:36.565Z,18.62
2018-07-22T02:28:05.315Z,18.68
2018-07-22T02:30:34.062Z,18.66
2018-07-22T02:33:02.731Z,18.66
2018-07-22T02:35:31.425Z,18.67
2018-07-22T02:38:01.324Z,18.66
2018-07-22T02:40:30.019Z,18.64
2018-07-22T02:42:58.686Z,18.67
2018-07-22T02:45:27.411Z,18.71
2018-07-22T02:47:56.100Z,18.72
2018-07-22T02:50:24.927Z,18.65
2018-07-22T02:52:53.579Z,18.61
2018-07-22T02:55:22.303Z,18.56
2018-07-22T02:57:50.984Z,18.54
2018-07-22T03:00:19.694Z,18.54
2018-07-22T03:02:48.464Z,18.48
2018-07-22T03:05:17.102Z,18.50
2018-07-22T03:07:45.779Z,18.49
2018-07-22T03:10:14.443Z,18.41
2018-07-22T03:12:43.166Z,18.49
2018-07-22T03:15:11.871Z,18.51
2018-07-22T03:17:40.526Z,18.52
2018-07-22T03:20:09.750Z,18.53
2018-07-22T03:22:38.402Z,18.50
2018-07-22T03:25:07.197Z,18.50
2018-07-22T03:27:35.878Z,18.53
2018-07-22T03:30:06.427Z,18.58
2018-07-22T03:32:35.164Z,18.61
2018-07-22T03:35:03.910Z,18.64
2018-07-22T03:37:32.632Z,18.63
2018-07-22T03:40:01.361Z,18.68
2018-07-22T03:42:30.150Z,18.73
2018-07-22T03:44:58.837Z,18.68
2018-07-22T03:47:27.597Z,18.74
2018-07-22T03:49:56.208Z,18.72
2018-07-22T03:52:24.990Z,18.62
2018-07-22T03:54:53.761Z,18.68
2018-07-22T03:57:22.398Z,18.70
2018-07-22T03:59:51.022Z,18.70
2018-07-22T04:02:19.743Z,18.75
2018-07-22T04:04:48.418Z,18.76
2018-07-22T04:07:17.091Z,18.79
2018-07-22T04:09:45.891Z,18.85
2018-07-22T04:12:14.534Z,18.85
2018-07-22T04:14:43.240Z,18.86
2018-07-22T04:17:12.200Z,18.89
2018-07-22T04:19:40.900Z,18.89
2018-07-22T04:22:09.556Z,18.94
2018-07-22T04:24:38.239Z,18.92
2018-07-22T04:27:07.034Z,18.96
2018-07-22T04:29:35.696Z,18.99
2018-07-22T04:32:04.418Z,19.01
2018-07-22T04:34:33.159Z,18.99
2018-07-22T04:37:01.853Z,18.99
2018-07-22T04:39:30.544Z,19.00
2018-07-22T04:41:59.261Z,19.04
2018-07-22T04:44:27.950Z,19.09
2018-07-22T04:46:56.610Z,19.15
2018-07-22T04:49:25.549Z,19.19
2018-07-22T04:51:54.208Z,19.30
2018-07-22T04:54:22.906Z,19.37
2018-07-22T04:56:51.556Z,19.49
2018-07-22T04:59:20.530Z,19.54
2018-07-22T05:01:49.215Z,19.56
2018-07-22T05:04:17.874Z,19.66
2018-07-22T05:06:46.582Z,19.63
2018-07-22T05:09:15.275Z,19.70
2018-07-22T05:11:43.990Z,19.75
2018-07-22T05:14:12.671Z,19.84
2018-07-22T05:16:41.348Z,19.96
2018-07-22T05:19:10.118Z,20.03
2018-07-22T05:21:38.771Z,20.15
2018-07-22T05:24:07.449Z,20.22
2018-07-22T05:26:36.147Z,20.35
2018-07-22T05:29:04.930Z,20.44
2018-07-22T05:31:33.635Z,20.53
2018-07-22T05:34:02.307Z,20.55
2018-07-22T05:36:31.002Z,20.54
2018-07-22T05:38:59.713Z,20.58
2018-07-22T05:41:28.531Z,20.61
2018-07-22T05:43:57.205Z,20.64
2018-07-22T05:46:25.891Z,20.76
2018-07-22T05:48:54.621Z,20.90
2018-07-22T05:51:23.309Z,20.99
2018-07-22T10:10:53.679Z,28.74
2018-07-22T10:13:22.351Z,28.98
2018-07-22T10:15:51.103Z,29.21
2018-07-22T10:18:19.795Z,29.13
2018-07-22T10:20:49.483Z,29.26
2018-07-22T10:23:18.233Z,29.13
2018-07-22T10:25:49.329Z,29.24
2018-07-22T10:28:22.053Z,29.20
2018-07-22T10:30:50.793Z,29.47
2018-07-22T10:33:19.571Z,29.50
2018-07-22T10:35:48.228Z,29.68
2018-07-22T10:38:16.910Z,29.81
2018-07-22T10:40:45.650Z,29.99
2018-07-22T10:43:14.323Z,30.12
2018-07-22T10:45:43.027Z,30.39
2018-07-22T10:48:11.722Z,30.49
2018-07-22T10:50:40.379Z,30.52
2018-07-22T10:53:09.038Z,30.67
2018-07-22T10:55:37.736Z,30.75
2018-07-22T10:58:06.530Z,30.79
2018-07-22T11:00:35.981Z,30.93
2018-07-22T11:03:06.494Z,31.30
2018-07-22T11:05:35.300Z,31.59
2018-07-22T11:08:04.062Z,32.09
2018-07-22T11:10:32.743Z,32.59
2018-07-22T11:13:01.455Z,33.06
2018-07-22T11:15:30.146Z,33.40
2018-07-22T11:17:58.790Z,34.03
2018-07-22T11:20:27.641Z,34.06
2018-07-22T11:22:56.322Z,34.47
2018-07-22T11:25:24.979Z,34.95
2018-07-22T11:27:53.802Z,34.97
2018-07-22T11:30:22.934Z,34.83
2018-07-22T11:32:52.609Z,34.58
2018-07-22T11:35:21.246Z,34.38
2018-07-22T11:37:50.214Z,34.70
2018-07-22T11:40:18.873Z,35.21
2018-07-22T11:42:47.553Z,35.24
2018-07-22T11:45:16.271Z,35.50
2018-07-22T11:47:44.950Z,36.15
2018-07-22T11:50:13.674Z,36.55
2018-07-22T11:52:42.546Z,36.31
2018-07-22T11:55:11.341Z,36.52
2018-07-22T11:57:40.019Z,35.75
2018-07-22T12:00:08.841Z,35.98
2018-07-22T12:02:37.539Z,35.55
2018-07-22T12:05:06.318Z,35.34
2018-07-22T12:07:39.932Z,35.31
2018-07-22T12:10:11.584Z,35.48
2018-07-22T12:12:40.270Z,35.55
2018-07-22T12:15:09.805Z,35.92
2018-07-22T12:17:39.637Z,35.86
2018-07-22T12:20:08.376Z,36.26
2018-07-22T12:22:37.291Z,36.42
2018-07-22T12:25:06.061Z,35.86
2018-07-22T12:27:36.703Z,35.39
2018-07-22T12:30:09.592Z,34.78
2018-07-22T12:32:39.592Z,34.53
2018-07-22T12:35:08.275Z,34.10
2018-07-22T12:37:36.994Z,33.88
2018-07-22T12:40:05.995Z,33.75
2018-07-22T12:42:34.700Z,33.30
2018-07-22T12:45:03.507Z,33.16
2018-07-22T12:47:32.179Z,33.05
2018-07-22T12:50:00.887Z,32.95
2018-07-22T12:52:29.583Z,32.57
2018-07-22T12:54:58.327Z,32.45
2018-07-22T12:57:27.079Z,32.31
2018-07-22T12:59:55.763Z,31.91
2018-07-22T13:02:24.486Z,31.65
2018-07-22T13:04:53.156Z,31.32
2018-07-22T13:07:21.811Z,30.73
2018-07-22T13:09:50.633Z,30.45
2018-07-22T13:12:19.303Z,30.26
2018-07-22T13:14:47.963Z,30.10
2018-07-22T13:17:17.321Z,29.69
2018-07-22T13:19:45.968Z,29.09
2018-07-22T13:22:14.646Z,28.73
2018-07-22T13:24:43.354Z,28.55
2018-07-22T13:27:12.134Z,28.28
2018-07-22T13:29:40.832Z,26.89
2018-07-22T13:32:09.938Z,26.04
2018-07-22T13:34:39.014Z,25.87
2018-07-22T13:37:08.066Z,25.90
2018-07-22T13:39:36.692Z,26.01
2018-07-22T13:42:06.166Z,26.44
2018-07-22T13:44:37.031Z,27.19
2018-07-22T13:47:07.064Z,27.65
2018-07-22T13:49:36.541Z,28.29
2018-07-22T13:52:07.283Z,29.38
2018-07-22T13:54:36.819Z,28.80
2018-07-22T13:57:06.351Z,29.35
2018-07-22T13:59:36.483Z,29.95
2018-07-22T14:02:06.292Z,30.29
2018-07-22T14:04:36.995Z,30.52
2018-07-22T14:07:05.661Z,30.99
2018-07-22T14:09:34.283Z,30.22
2018-07-22T14:12:02.963Z,29.79
2018-07-22T14:14:31.655Z,30.02
2018-07-22T14:17:00.613Z,30.42
2018-07-22T14:19:29.302Z,31.16
2018-07-22T14:21:57.983Z,31.89
2018-07-22T14:24:26.696Z,32.75
2018-07-22T14:26:55.357Z,33.57
2018-07-22T14:29:24.062Z,34.16
2018-07-22T14:31:52.763Z,34.65
2018-07-22T14:34:21.487Z,35.26
2018-07-22T14:36:50.169Z,35.37
2018-07-22T14:39:19.247Z,35.48
2018-07-22T14:41:47.910Z,35.41
2018-07-22T14:44:17.178Z,35.50
2018-07-22T14:46:46.426Z,35.38
2018-07-22T14:49:15.840Z,35.57
2018-07-22T14:51:45.258Z,35.76
2018-07-22T14:54:14.814Z,35.93
2018-07-22T14:56:44.292Z,36.23
2018-07-22T14:59:13.555Z,36.11
2018-07-22T15:01:42.810Z,36.29
2018-07-22T15:04:12.227Z,35.98
2018-07-22T15:06:41.489Z,35.22
2018-07-22T15:09:10.759Z,34.60
2018-07-22T15:11:39.916Z,34.63
2018-07-22T15:14:08.967Z,34.02
2018-07-22T15:16:37.651Z,33.76
2018-07-22T15:19:07.036Z,33.40
2018-07-22T15:21:36.190Z,33.53
2018-07-22T15:24:05.510Z,34.06
2018-07-22T15:26:34.152Z,34.27
2018-07-22T15:29:02.828Z,35.00
2018-07-22T15:31:31.495Z,35.09
2018-07-22T15:34:00.154Z,35.07
2018-07-22T15:36:28.857Z,35.44
2018-07-22T15:38:57.544Z,35.15
2018-07-22T15:41:26.194Z,34.52
2018-07-22T15:43:55.425Z,34.26
2018-07-22T15:46:24.086Z,34.46
2018-07-22T15:48:52.907Z,34.57
2018-07-22T15:51:21.591Z,35.09
2018-07-22T15:53:50.291Z,34.99
2018-07-22T15:56:18.940Z,35.33
2018-07-22T15:58:48.473Z,35.66
2018-07-22T16:01:17.295Z,35.74
2018-07-22T16:03:46.037Z,35.67
2018-07-22T16:06:14.853Z,35.75
2018-07-22T16:08:43.523Z,35.73
2018-07-22T16:11:12.261Z,35.43
2018-07-22T16:13:41.201Z,35.25
2018-07-22T16:16:09.879Z,35.22
2018-07-22T16:18:42.239Z,35.05
2018-07-22T16:21:10.945Z,34.78
2018-07-22T16:23:39.795Z,34.77
2018-07-22T16:26:08.910Z,34.65
2018-07-22T16:28:37.577Z,34.65
2018-07-22T16:31:07.072Z,34.22
2018-07-22T16:33:35.974Z,34.06
2018-07-22T16:36:04.660Z,33.69
2018-07-22T16:38:33.357Z,33.47
2018-07-22T16:41:02.085Z,33.39
2018-07-22T16:43:30.810Z,32.72
2018-07-22T16:45:59.558Z,32.39
2018-07-22T16:48:28.237Z,31.76
2018-07-22T16:50:56.960Z,31.34
2018-07-22T16:53:25.680Z,30.77
2018-07-22T16:55:54.329Z,30.63
2018-07-22T16:58:23.009Z,30.40
2018-07-22T17:00:51.811Z,30.03
2018-07-22T17:03:21.372Z,29.86
2018-07-22T17:05:50.125Z,29.57
2018-07-22T17:08:19.318Z,29.37
2018-07-22T17:10:48.182Z,29.14
2018-07-22T17:13:16.878Z,28.99
2018-07-22T17:15:45.583Z,28.83
2018-07-22T17:18:14.258Z,28.69
2018-07-22T17:20:43.079Z,28.59
2018-07-22T17:23:11.891Z,28.34
2018-07-22T17:25:40.551Z,28.19
2018-07-22T17:28:09.285Z,28.13
2018-07-22T17:30:38.022Z,28.09
2018-07-22T17:33:07.084Z,27.87
2018-07-22T17:35:35.924Z,27.85
2018-07-22T17:38:04.683Z,27.95
2018-07-22T17:44:02.690Z,27.60
2018-07-22T17:46:31.444Z,27.51
2018-07-22T17:49:00.122Z,27.44
2018-07-22T17:51:28.805Z,27.28
2018-07-22T17:53:57.468Z,27.26
2018-07-22T17:56:26.280Z,27.24
2018-07-22T17:58:54.961Z,27.21
2018-07-22T18:01:23.746Z,26.99
2018-07-22T18:03:52.454Z,26.96
2018-07-22T18:06:21.227Z,26.87
2018-07-22T18:08:49.922Z,26.71
2018-07-22T18:11:18.605Z,26.75
2018-07-22T18:13:47.386Z,26.66
2018-07-22T18:16:16.561Z,26.57
2018-07-22T18:18:45.384Z,26.51
2018-07-22T18:21:14.118Z,26.49
2018-07-22T18:23:42.805Z,26.43
2018-07-22T18:26:11.502Z,26.36
2018-07-22T18:28:40.236Z,26.29
2018-07-22T18:31:08.946Z,26.33
2018-07-22T18:33:37.721Z,26.29
2018-07-22T18:36:06.542Z,26.31
2018-07-22T18:38:35.255Z,26.35
2018-07-22T18:41:04.003Z,26.33
2018-07-22T18:43:32.734Z,26.19
2018-07-22T18:46:01.525Z,26.12
2018-07-22T18:48:30.475Z,26.13
2018-07-22T18:50:59.215Z,26.02
2018-07-22T18:53:27.931Z,25.94
2018-07-22T18:55:56.806Z,25.89
2018-07-22T18:58:25.550Z,25.84
2018-07-22T19:00:55.129Z,25.61
2018-07-22T19:03:23.824Z,25.64
2018-07-22T19:05:52.547Z,25.50
2018-07-22T19:08:21.300Z,25.34
2018-07-22T19:10:50.033Z,25.30
2018-07-22T19:13:18.729Z,25.37
2018-07-22T19:15:47.420Z,25.35
2018-07-22T19:18:16.095Z,25.30
2018-07-22T19:20:44.756Z,25.11
2018-07-22T19:23:13.476Z,25.01
2018-07-22T19:25:42.331Z,24.96
2018-07-22T19:28:11.422Z,24.99
2018-07-22T19:30:40.187Z,24.89
2018-07-22T19:33:09.262Z,24.85
2018-07-22T19:35:44.129Z,24.85
2018-07-22T19:38:13.534Z,24.79
2018-07-22T19:40:42.587Z,24.62
2018-07-22T19:43:11.327Z,24.66
2018-07-22T19:45:40.075Z,24.38
2018-07-22T19:48:08.969Z,24.11
2018-07-22T19:50:37.695Z,23.86
2018-07-22T19:53:06.404Z,23.66
2018-07-22T19:55:35.101Z,23.51
2018-07-22T19:58:03.904Z,23.41
2018-07-22T20:00:32.736Z,23.39
2018-07-22T20:03:01.537Z,23.41
2018-07-22T20:05:30.261Z,23.53
2018-07-22T20:07:59.173Z,23.57
2018-07-22T20:10:27.860Z,23.61
2018-07-22T20:12:56.563Z,23.78
2018-07-22T20:15:25.235Z,24.01
2018-07-22T20:17:53.967Z,24.10
2018-07-22T20:20:22.709Z,24.02
2018-07-22T20:22:51.547Z,23.87
2018-07-22T20:25:20.286Z,23.77
2018-07-22T20:27:49.063Z,23.69
2018-07-22T20:30:17.892Z,23.73
2018-07-22T20:32:46.574Z,23.73
2018-07-22T20:35:15.290Z,23.69
2018-07-22T20:37:44.074Z,23.61
2018-07-22T20:40:12.887Z,23.62
2018-07-22T20:42:41.595Z,23.59
2018-07-22T20:45:11.232Z,23.44
2018-07-22T20:47:39.903Z,23.40
2018-07-22T20:50:08.580Z,23.36
2018-07-22T20:52:37.370Z,23.38
2018-07-22T20:55:06.762Z,23.38
2018-07-22T20:57:35.544Z,23.43
2018-07-22T21:00:05.921Z,23.42
2018-07-22T21:02:34.793Z,23.33
2018-07-22T21:05:04.036Z,23.34
2018-07-22T21:07:32.816Z,23.31
2018-07-22T21:10:01.513Z,23.32
2018-07-22T21:12:43.690Z,23.34
2018-07-22T21:15:12.847Z,23.30
2018-07-22T21:17:41.706Z,23.19
2018-07-22T21:20:10.363Z,23.17
2018-07-22T21:22:39.465Z,23.14
2018-07-22T21:25:08.210Z,23.15
2018-07-22T21:27:36.950Z,23.10
2018-07-22T21:30:07.776Z,23.01
2018-07-22T21:32:36.467Z,22.69
2018-07-22T21:35:05.512Z,22.68
2018-07-22T21:37:34.382Z,22.75
2018-07-22T21:40:03.152Z,22.82
2018-07-22T21:42:32.774Z,22.97
2018-07-22T21:45:01.778Z,23.03
2018-07-22T21:47:30.559Z,23.05
2018-07-22T21:49:59.299Z,22.70
2018-07-22T21:52:27.963Z,22.44
2018-07-22T21:54:56.675Z,22.19
2018-07-22T21:57:25.555Z,22.10
2018-07-22T21:59:54.188Z,22.16
2018-07-22T22:02:27.139Z,22.13
2018-07-22T22:04:56.247Z,22.19
2018-07-22T22:07:25.077Z,22.25
2018-07-22T22:09:54.228Z,22.08
2018-07-22T22:12:23.622Z,22.02
2018-07-22T22:14:52.316Z,22.09
2018-07-22T22:17:21.012Z,22.08
2018-07-22T22:19:49.702Z,21.87
2018-07-22T22:22:18.351Z,21.99
2018-07-22T22:24:47.903Z,22.01
2018-07-22T22:27:16.648Z,22.08
2018-07-22T22:29:45.339Z,22.19
2018-07-22T22:32:14.048Z,22.30
2018-07-22T22:34:42.720Z,22.41
2018-07-22T22:37:11.419Z,22.31
2018-07-22T22:39:40.133Z,22.34
2018-07-22T22:42:09.286Z,22.28
2018-07-22T22:44:37.972Z,22.26
2018-07-22T22:47:06.659Z,22.24
2018-07-22T22:49:35.347Z,22.16
2018-07-22T22:52:04.076Z,22.09
2018-07-22T22:54:33.874Z,22.01
2018-07-22T22:57:02.538Z,21.98
2018-07-22T22:59:31.195Z,21.98
2018-07-22T23:01:59.932Z,21.97
2018-07-22T23:04:28.581Z,22.01
2018-07-22T23:06:57.390Z,21.93
2018-07-22T23:09:26.070Z,21.86
2018-07-22T23:11:55.035Z,21.82
2018-07-22T23:14:23.691Z,21.73
2018-07-22T23:16:52.464Z,21.70
2018-07-22T23:19:21.143Z,21.71
2018-07-22T23:21:49.800Z,21.71
2018-07-22T23:24:18.525Z,21.68
2018-07-22T23:26:47.217Z,21.67
2018-07-22T23:29:15.935Z,21.68
2018-07-22T23:31:44.651Z,21.66
2018-07-22T23:34:13.309Z,21.70
2018-07-22T23:36:42.020Z,21.75
2018-07-22T23:39:10.841Z,21.64
2018-07-22T23:41:39.551Z,21.61
2018-07-22T23:44:08.466Z,21.58
2018-07-22T23:46:37.152Z,21.49
2018-07-22T23:49:06.016Z,21.44
2018-07-22T23:51:34.737Z,21.48
2018-07-22T23:54:03.423Z,21.49
2018-07-22T23:56:32.108Z,21.48
2018-07-22T23:59:00.818Z,21.48
